North Island Naval Air Station-Halsey Field
KNZY : now visible

Airfield :











YOU CAN JOIN US ON...

 
LOGIN :

Register | Disclaimer

   EN    FR    IT 

 









Legend :    VFR   Marginal VFR   IFR   Intensive IFR   Very Intensive IFR
Visi :
Ceiling :
>= 8 km
>= 3000ft
5 to 8 km
1000 to 3000 ft
1500m to 5 km
500 to 1000 ft
800 to 1500m
200 to 500 ft
< 800m
< 200 ft
Symbols :   Thunderstorms  Fog  Heavy snow  Heavy precipitations  Wind > 20 kt






- Airport Elevation : 26 ft


KNZY - North Island Naval Air Station-Halsey Field

CURRENT METAR :
  • 131352Z 01006KT 3SM BR BKN007 16/13 A2999 RMK AO2 SLP155 T01610133

EXPIRED METARs :
  • 131252Z 32006KT 3SM BR OVC006 16/13 A2998 RMK AO2 SLP152 T01560133
  • 131152Z 01004KT 2SM BR OVC005 16/13 A2998 RMK AO2 SLP151 T01560133 10167 20150 56007

TAF TAF KNZY
Valid from the 13 at 07:00 until the 14 at 07:00 UTC


1307/1407 VRB06KT 8000 BR OVC007 QNH2992INS
TEMPO 1307/1313 31009KT 3200 BR OVC004
FM131300 VRB06KT 6000 BR BKN008 QNH2993INS
TEMPO 1313/1319 1600 BR OVC003
FM131900 VRB06KT 9000 BR SCT008 QNH2992INS
TEMPO 1319/1400 30009KT 4800 BR BKN007
FM140000 VRB06KT 8000 BR BKN007 QNH2993INS
TEMPO 1400/1406 31008KT 3200 BR BKN004 T13/1313Z T20/1322Z FS30145



MET'MAP, your aeronautical weather chart ! - Copyright ORBIFLY December 2007 - Disclaimer

ORBIFLY MET'MAP TEAM :

Programming & Development : Alexandra Zaïnal
Concept & Development : Baudouin d'Aumeries
Co-Development & Prog : Marc-Olivier Méhu
Technical & hardware support : Manuel Goepfert

Contact : metmap@orbifly.com




SOURCES & CREDITS :

   NOAA       Earth
Advisory